sensor_id;sensor_type;location;lat;lon;timestamp;P1;durP1;ratioP1;P2;durP2;ratioP2
64060;SDS011;60147;55.036;73.242;2023-06-24T00:00:32;18.67;;;9.30;;
64060;SDS011;60147;55.036;73.242;2023-06-24T00:02:59;21.92;;;8.43;;
64060;SDS011;60147;55.036;73.242;2023-06-24T00:05:27;15.02;;;7.35;;
64060;SDS011;60147;55.036;73.242;2023-06-24T00:07:53;18.52;;;8.15;;
64060;SDS011;60147;55.036;73.242;2023-06-24T00:10:22;17.95;;;7.35;;
64060;SDS011;60147;55.036;73.242;2023-06-24T00:12:48;26.25;;;7.20;;
64060;SDS011;60147;55.036;73.242;2023-06-24T00:15:14;13.15;;;6.93;;
64060;SDS011;60147;55.036;73.242;2023-06-24T00:17:40;14.98;;;5.70;;
64060;SDS011;60147;55.036;73.242;2023-06-24T00:20:08;14.18;;;5.72;;
64060;SDS011;60147;55.036;73.242;2023-06-24T00:22:37;14.00;;;5.68;;
64060;SDS011;60147;55.036;73.242;2023-06-24T00:25:09;10.82;;;5.13;;
64060;SDS011;60147;55.036;73.242;2023-06-24T00:27:54;9.93;;;5.20;;
64060;SDS011;60147;55.036;73.242;2023-06-24T00:30:20;14.95;;;5.55;;
64060;SDS011;60147;55.036;73.242;2023-06-24T00:32:46;13.60;;;4.50;;
64060;SDS011;60147;55.036;73.242;2023-06-24T00:35:12;14.27;;;4.68;;
64060;SDS011;60147;55.036;73.242;2023-06-24T00:37:56;9.73;;;4.40;;
64060;SDS011;60147;55.036;73.242;2023-06-24T00:40:23;9.00;;;4.78;;
64060;SDS011;60147;55.036;73.242;2023-06-24T00:43:08;10.30;;;4.57;;
64060;SDS011;60147;55.036;73.242;2023-06-24T00:45:35;8.20;;;4.40;;
64060;SDS011;60147;55.036;73.242;2023-06-24T00:48:01;12.85;;;4.70;;
64060;SDS011;60147;55.036;73.242;2023-06-24T00:53:15;8.25;;;3.75;;
64060;SDS011;60147;55.036;73.242;2023-06-24T00:55:41;7.03;;;3.42;;
64060;SDS011;60147;55.036;73.242;2023-06-24T01:01:10;5.88;;;3.08;;
64060;SDS011;60147;55.036;73.242;2023-06-24T01:03:37;6.05;;;2.58;;
64060;SDS011;60147;55.036;73.242;2023-06-24T01:06:03;7.20;;;2.53;;
64060;SDS011;60147;55.036;73.242;2023-06-24T01:08:47;5.22;;;2.40;;
64060;SDS011;60147;55.036;73.242;2023-06-24T01:11:16;9.45;;;2.63;;
64060;SDS011;60147;55.036;73.242;2023-06-24T01:18:57;7.25;;;2.55;;
64060;SDS011;60147;55.036;73.242;2023-06-24T01:25:00;9.63;;;2.70;;
64060;SDS011;60147;55.036;73.242;2023-06-24T01:29:42;4.50;;;3.00;;
64060;SDS011;60147;55.036;73.242;2023-06-24T01:32:31;5.20;;;2.90;;
64060;SDS011;60147;55.036;73.242;2023-06-24T01:35:05;9.18;;;2.80;;
64060;SDS011;60147;55.036;73.242;2023-06-24T01:37:37;11.40;;;3.22;;
64060;SDS011;60147;55.036;73.242;2023-06-24T01:42:54;8.10;;;2.80;;
64060;SDS011;60147;55.036;73.242;2023-06-24T01:45:26;5.72;;;2.80;;
64060;SDS011;60147;55.036;73.242;2023-06-24T01:47:54;9.27;;;2.20;;
64060;SDS011;60147;55.036;73.242;2023-06-24T01:50:21;3.55;;;1.80;;
64060;SDS011;60147;55.036;73.242;2023-06-24T01:53:06;5.07;;;2.28;;
64060;SDS011;60147;55.036;73.242;2023-06-24T01:55:33;3.63;;;1.67;;
64060;SDS011;60147;55.036;73.242;2023-06-24T01:58:00;6.28;;;1.90;;
64060;SDS011;60147;55.036;73.242;2023-06-24T02:03:31;3.90;;;2.10;;
64060;SDS011;60147;55.036;73.242;2023-06-24T02:05:59;3.85;;;1.90;;
64060;SDS011;60147;55.036;73.242;2023-06-24T02:08:25;4.13;;;1.83;;
64060;SDS011;60147;55.036;73.242;2023-06-24T02:10:51;4.30;;;1.70;;
64060;SDS011;60147;55.036;73.242;2023-06-24T02:13:38;4.63;;;2.38;;
64060;SDS011;60147;55.036;73.242;2023-06-24T02:16:11;8.13;;;2.08;;
64060;SDS011;60147;55.036;73.242;2023-06-24T02:18:40;4.28;;;2.75;;
64060;SDS011;60147;55.036;73.242;2023-06-24T02:21:09;6.82;;;2.33;;
64060;SDS011;60147;55.036;73.242;2023-06-24T02:26:38;4.47;;;2.20;;
64060;SDS011;60147;55.036;73.242;2023-06-24T02:29:08;5.18;;;2.17;;
64060;SDS011;60147;55.036;73.242;2023-06-24T02:31:35;9.50;;;2.28;;
64060;SDS011;60147;55.036;73.242;2023-06-24T02:34:01;6.72;;;2.30;;
64060;SDS011;60147;55.036;73.242;2023-06-24T02:36:27;6.57;;;2.33;;
64060;SDS011;60147;55.036;73.242;2023-06-24T02:38:53;6.57;;;3.05;;
64060;SDS011;60147;55.036;73.242;2023-06-24T02:41:20;8.05;;;2.28;;
64060;SDS011;60147;55.036;73.242;2023-06-24T02:43:45;4.60;;;2.22;;
64060;SDS011;60147;55.036;73.242;2023-06-24T02:46:11;3.67;;;2.20;;
64060;SDS011;60147;55.036;73.242;2023-06-24T02:48:37;6.38;;;2.35;;
64060;SDS011;60147;55.036;73.242;2023-06-24T02:51:04;3.78;;;2.25;;
64060;SDS011;60147;55.036;73.242;2023-06-24T02:56:17;5.32;;;1.83;;
64060;SDS011;60147;55.036;73.242;2023-06-24T02:58:47;3.80;;;1.67;;
64060;SDS011;60147;55.036;73.242;2023-06-24T03:01:23;5.93;;;1.58;;
64060;SDS011;60147;55.036;73.242;2023-06-24T03:03:55;4.78;;;1.55;;
64060;SDS011;60147;55.036;73.242;2023-06-24T03:06:22;4.90;;;1.70;;
64060;SDS011;60147;55.036;73.242;2023-06-24T03:08:49;2.25;;;1.60;;
64060;SDS011;60147;55.036;73.242;2023-06-24T03:11:18;3.88;;;1.67;;
64060;SDS011;60147;55.036;73.242;2023-06-24T03:13:43;3.33;;;1.70;;
64060;SDS011;60147;55.036;73.242;2023-06-24T03:16:14;5.18;;;1.77;;
64060;SDS011;60147;55.036;73.242;2023-06-24T03:19:03;4.85;;;2.90;;
64060;SDS011;60147;55.036;73.242;2023-06-24T03:21:29;6.13;;;1.85;;
64060;SDS011;60147;55.036;73.242;2023-06-24T03:24:15;5.78;;;1.83;;
64060;SDS011;60147;55.036;73.242;2023-06-24T03:26:44;4.20;;;2.13;;
64060;SDS011;60147;55.036;73.242;2023-06-24T03:29:12;3.78;;;2.20;;
64060;SDS011;60147;55.036;73.242;2023-06-24T03:34:31;5.63;;;2.47;;
64060;SDS011;60147;55.036;73.242;2023-06-24T03:36:57;5.65;;;2.80;;
64060;SDS011;60147;55.036;73.242;2023-06-24T03:39:41;5.55;;;2.20;;
64060;SDS011;60147;55.036;73.242;2023-06-24T03:42:07;6.53;;;2.40;;
64060;SDS011;60147;55.036;73.242;2023-06-24T03:44:34;6.63;;;3.00;;
64060;SDS011;60147;55.036;73.242;2023-06-24T03:47:02;6.47;;;2.63;;
64060;SDS011;60147;55.036;73.242;2023-06-24T03:49:28;8.43;;;2.42;;
64060;SDS011;60147;55.036;73.242;2023-06-24T03:51:53;5.20;;;2.80;;
64060;SDS011;60147;55.036;73.242;2023-06-24T03:54:19;2.83;;;1.85;;
64060;SDS011;60147;55.036;73.242;2023-06-24T03:57:04;12.15;;;4.00;;
64060;SDS011;60147;55.036;73.242;2023-06-24T03:59:30;9.63;;;4.60;;
64060;SDS011;60147;55.036;73.242;2023-06-24T04:02:14;9.13;;;4.25;;
64060;SDS011;60147;55.036;73.242;2023-06-24T04:04:41;14.27;;;5.03;;
64060;SDS011;60147;55.036;73.242;2023-06-24T04:07:07;19.67;;;9.15;;
64060;SDS011;60147;55.036;73.242;2023-06-24T04:09:33;5.32;;;2.95;;
64060;SDS011;60147;55.036;73.242;2023-06-24T04:12:00;4.78;;;2.15;;
64060;SDS011;60147;55.036;73.242;2023-06-24T04:14:32;4.40;;;1.95;;
64060;SDS011;60147;55.036;73.242;2023-06-24T04:20:01;5.85;;;1.90;;
64060;SDS011;60147;55.036;73.242;2023-06-24T04:22:30;7.53;;;2.10;;
64060;SDS011;60147;55.036;73.242;2023-06-24T04:24:58;5.50;;;2.58;;
64060;SDS011;60147;55.036;73.242;2023-06-24T04:27:24;4.45;;;2.05;;
64060;SDS011;60147;55.036;73.242;2023-06-24T04:30:08;3.08;;;2.03;;
64060;SDS011;60147;55.036;73.242;2023-06-24T04:32:35;3.20;;;1.92;;
64060;SDS011;60147;55.036;73.242;2023-06-24T04:35:01;8.05;;;4.70;;
64060;SDS011;60147;55.036;73.242;2023-06-24T04:37:27;9.75;;;4.75;;
64060;SDS011;60147;55.036;73.242;2023-06-24T04:39:54;3.42;;;1.77;;
64060;SDS011;60147;55.036;73.242;2023-06-24T04:42:20;7.63;;;2.22;;
64060;SDS011;60147;55.036;73.242;2023-06-24T04:44:46;3.35;;;2.22;;
64060;SDS011;60147;55.036;73.242;2023-06-24T04:47:35;4.10;;;1.92;;
64060;SDS011;60147;55.036;73.242;2023-06-24T04:53:04;7.00;;;3.53;;
64060;SDS011;60147;55.036;73.242;2023-06-24T04:55:30;4.30;;;2.47;;
64060;SDS011;60147;55.036;73.242;2023-06-24T04:57:56;3.22;;;2.00;;
64060;SDS011;60147;55.036;73.242;2023-06-24T05:00:22;3.30;;;1.95;;
64060;SDS011;60147;55.036;73.242;2023-06-24T05:02:50;5.28;;;2.20;;
64060;SDS011;60147;55.036;73.242;2023-06-24T05:08:07;4.63;;;2.28;;
64060;SDS011;60147;55.036;73.242;2023-06-24T05:10:33;5.60;;;2.22;;
64060;SDS011;60147;55.036;73.242;2023-06-24T05:15:51;13.23;;;3.05;;
64060;SDS011;60147;55.036;73.242;2023-06-24T05:18:17;8.55;;;2.70;;
64060;SDS011;60147;55.036;73.242;2023-06-24T05:21:02;11.20;;;2.85;;
64060;SDS011;60147;55.036;73.242;2023-06-24T05:23:28;7.55;;;2.35;;
64060;SDS011;60147;55.036;73.242;2023-06-24T05:25:53;4.40;;;2.50;;
64060;SDS011;60147;55.036;73.242;2023-06-24T05:28:19;4.45;;;2.00;;
64060;SDS011;60147;55.036;73.242;2023-06-24T05:30:45;3.95;;;1.80;;
64060;SDS011;60147;55.036;73.242;2023-06-24T05:35:56;6.47;;;2.13;;
64060;SDS011;60147;55.036;73.242;2023-06-24T05:38:33;5.85;;;1.80;;
64060;SDS011;60147;55.036;73.242;2023-06-24T05:44:03;3.10;;;1.65;;
64060;SDS011;60147;55.036;73.242;2023-06-24T05:46:30;2.42;;;1.55;;
64060;SDS011;60147;55.036;73.242;2023-06-24T05:48:56;3.40;;;2.00;;
64060;SDS011;60147;55.036;73.242;2023-06-24T05:54:06;5.90;;;2.05;;
64060;SDS011;60147;55.036;73.242;2023-06-24T05:59:19;3.67;;;1.90;;
64060;SDS011;60147;55.036;73.242;2023-06-24T06:01:45;4.32;;;1.70;;
64060;SDS011;60147;55.036;73.242;2023-06-24T06:04:11;7.25;;;1.83;;
64060;SDS011;60147;55.036;73.242;2023-06-24T06:06:55;4.82;;;1.67;;
64060;SDS011;60147;55.036;73.242;2023-06-24T06:09:21;8.27;;;2.90;;
64060;SDS011;60147;55.036;73.242;2023-06-24T06:11:47;6.10;;;2.17;;
64060;SDS011;60147;55.036;73.242;2023-06-24T06:14:13;5.88;;;1.90;;
64060;SDS011;60147;55.036;73.242;2023-06-24T06:16:39;4.82;;;1.50;;
64060;SDS011;60147;55.036;73.242;2023-06-24T06:19:05;3.25;;;1.60;;
64060;SDS011;60147;55.036;73.242;2023-06-24T06:21:31;4.45;;;2.10;;
64060;SDS011;60147;55.036;73.242;2023-06-24T06:26:42;3.97;;;1.40;;
64060;SDS011;60147;55.036;73.242;2023-06-24T06:29:27;2.97;;;1.60;;
64060;SDS011;60147;55.036;73.242;2023-06-24T06:31:53;3.42;;;1.75;;
64060;SDS011;60147;55.036;73.242;2023-06-24T06:34:39;2.97;;;1.90;;
64060;SDS011;60147;55.036;73.242;2023-06-24T06:37:05;3.28;;;1.70;;
64060;SDS011;60147;55.036;73.242;2023-06-24T06:39:31;7.25;;;2.33;;
64060;SDS011;60147;55.036;73.242;2023-06-24T06:41:57;5.57;;;1.90;;
64060;SDS011;60147;55.036;73.242;2023-06-24T06:44:23;9.70;;;2.22;;
64060;SDS011;60147;55.036;73.242;2023-06-24T06:46:49;4.75;;;1.67;;
64060;SDS011;60147;55.036;73.242;2023-06-24T06:49:15;7.15;;;2.15;;
64060;SDS011;60147;55.036;73.242;2023-06-24T06:51:42;2.72;;;1.40;;
64060;SDS011;60147;55.036;73.242;2023-06-24T06:54:09;5.50;;;2.03;;
64060;SDS011;60147;55.036;73.242;2023-06-24T06:56:35;3.90;;;1.80;;
64060;SDS011;60147;55.036;73.242;2023-06-24T07:07:51;6.03;;;2.40;;
64060;SDS011;60147;55.036;73.242;2023-06-24T07:13:40;7.30;;;2.50;;
64060;SDS011;60147;55.036;73.242;2023-06-24T07:16:07;4.80;;;2.10;;
64060;SDS011;60147;55.036;73.242;2023-06-24T07:18:33;7.00;;;2.60;;
64060;SDS011;60147;55.036;73.242;2023-06-24T07:21:17;5.13;;;2.28;;
64060;SDS011;60147;55.036;73.242;2023-06-24T07:23:43;7.03;;;2.20;;
64060;SDS011;60147;55.036;73.242;2023-06-24T07:26:09;6.13;;;2.50;;
64060;SDS011;60147;55.036;73.242;2023-06-24T07:28:35;7.45;;;3.78;;
64060;SDS011;60147;55.036;73.242;2023-06-24T07:31:01;14.45;;;4.75;;
64060;SDS011;60147;55.036;73.242;2023-06-24T07:33:27;6.28;;;2.47;;
64060;SDS011;60147;55.036;73.242;2023-06-24T07:36:14;7.90;;;3.63;;
64060;SDS011;60147;55.036;73.242;2023-06-24T07:41:25;22.00;;;9.05;;
64060;SDS011;60147;55.036;73.242;2023-06-24T07:43:50;14.10;;;7.47;;
64060;SDS011;60147;55.036;73.242;2023-06-24T07:46:35;7.47;;;5.05;;
64060;SDS011;60147;55.036;73.242;2023-06-24T07:49:01;17.90;;;9.82;;
64060;SDS011;60147;55.036;73.242;2023-06-24T07:51:27;6.55;;;3.40;;
64060;SDS011;60147;55.036;73.242;2023-06-24T07:53:53;12.50;;;6.13;;
64060;SDS011;60147;55.036;73.242;2023-06-24T07:56:19;6.20;;;3.28;;
64060;SDS011;60147;55.036;73.242;2023-06-24T07:58:45;6.22;;;2.53;;
64060;SDS011;60147;55.036;73.242;2023-06-24T08:01:10;6.45;;;2.83;;
64060;SDS011;60147;55.036;73.242;2023-06-24T08:03:37;8.95;;;3.22;;
64060;SDS011;60147;55.036;73.242;2023-06-24T08:06:03;8.40;;;4.28;;
64060;SDS011;60147;55.036;73.242;2023-06-24T08:08:28;10.65;;;3.60;;
64060;SDS011;60147;55.036;73.242;2023-06-24T08:10:54;11.90;;;5.78;;
64060;SDS011;60147;55.036;73.242;2023-06-24T08:13:22;9.63;;;4.35;;
64060;SDS011;60147;55.036;73.242;2023-06-24T08:15:47;7.68;;;2.80;;
64060;SDS011;60147;55.036;73.242;2023-06-24T08:18:14;5.70;;;2.80;;
64060;SDS011;60147;55.036;73.242;2023-06-24T08:20:39;3.83;;;2.78;;
64060;SDS011;60147;55.036;73.242;2023-06-24T08:25:50;4.47;;;2.25;;
64060;SDS011;60147;55.036;73.242;2023-06-24T08:28:34;4.55;;;1.98;;
64060;SDS011;60147;55.036;73.242;2023-06-24T08:31:00;5.47;;;2.10;;
64060;SDS011;60147;55.036;73.242;2023-06-24T08:33:26;6.18;;;3.67;;
64060;SDS011;60147;55.036;73.242;2023-06-24T08:35:52;25.80;;;11.48;;
64060;SDS011;60147;55.036;73.242;2023-06-24T08:41:03;50.58;;;20.13;;
64060;SDS011;60147;55.036;73.242;2023-06-24T08:43:29;20.00;;;7.80;;
64060;SDS011;60147;55.036;73.242;2023-06-24T08:45:55;5.93;;;2.45;;
64060;SDS011;60147;55.036;73.242;2023-06-24T08:48:21;12.50;;;4.82;;
64060;SDS011;60147;55.036;73.242;2023-06-24T08:50:50;17.98;;;10.52;;
64060;SDS011;60147;55.036;73.242;2023-06-24T08:53:16;6.70;;;3.60;;
64060;SDS011;60147;55.036;73.242;2023-06-24T08:55:44;8.82;;;2.58;;
64060;SDS011;60147;55.036;73.242;2023-06-24T08:58:11;5.50;;;2.25;;
64060;SDS011;60147;55.036;73.242;2023-06-24T09:00:55;3.85;;;2.30;;
64060;SDS011;60147;55.036;73.242;2023-06-24T09:03:40;3.78;;;2.08;;
64060;SDS011;60147;55.036;73.242;2023-06-24T09:06:06;2.63;;;1.83;;
64060;SDS011;60147;55.036;73.242;2023-06-24T09:08:32;4.57;;;2.08;;
64060;SDS011;60147;55.036;73.242;2023-06-24T09:11:01;2.97;;;1.60;;
64060;SDS011;60147;55.036;73.242;2023-06-24T09:13:36;8.32;;;2.70;;
64060;SDS011;60147;55.036;73.242;2023-06-24T09:16:14;5.35;;;2.30;;
64060;SDS011;60147;55.036;73.242;2023-06-24T09:18:40;4.30;;;2.13;;
64060;SDS011;60147;55.036;73.242;2023-06-24T09:21:07;4.53;;;1.98;;
64060;SDS011;60147;55.036;73.242;2023-06-24T09:23:36;5.13;;;2.00;;
64060;SDS011;60147;55.036;73.242;2023-06-24T09:26:18;7.30;;;2.65;;
64060;SDS011;60147;55.036;73.242;2023-06-24T09:28:47;5.50;;;2.65;;
64060;SDS011;60147;55.036;73.242;2023-06-24T09:31:13;5.68;;;2.58;;
64060;SDS011;60147;55.036;73.242;2023-06-24T09:33:39;3.97;;;2.22;;
64060;SDS011;60147;55.036;73.242;2023-06-24T09:36:05;7.05;;;2.17;;
64060;SDS011;60147;55.036;73.242;2023-06-24T09:38:50;4.80;;;2.88;;
64060;SDS011;60147;55.036;73.242;2023-06-24T09:41:16;5.30;;;2.22;;
64060;SDS011;60147;55.036;73.242;2023-06-24T09:46:45;3.17;;;2.00;;
64060;SDS011;60147;55.036;73.242;2023-06-24T09:49:12;4.60;;;2.25;;
64060;SDS011;60147;55.036;73.242;2023-06-24T09:51:38;4.32;;;2.00;;
64060;SDS011;60147;55.036;73.242;2023-06-24T09:54:08;4.35;;;1.90;;
64060;SDS011;60147;55.036;73.242;2023-06-24T09:56:39;5.83;;;1.80;;
64060;SDS011;60147;55.036;73.242;2023-06-24T09:59:06;4.88;;;2.03;;
64060;SDS011;60147;55.036;73.242;2023-06-24T10:04:17;6.68;;;1.95;;
64060;SDS011;60147;55.036;73.242;2023-06-24T10:06:43;5.63;;;2.63;;
64060;SDS011;60147;55.036;73.242;2023-06-24T10:09:09;10.40;;;4.30;;
64060;SDS011;60147;55.036;73.242;2023-06-24T10:11:37;8.55;;;3.80;;
64060;SDS011;60147;55.036;73.242;2023-06-24T10:14:03;6.60;;;3.28;;
64060;SDS011;60147;55.036;73.242;2023-06-24T10:16:29;7.38;;;3.58;;
64060;SDS011;60147;55.036;73.242;2023-06-24T10:19:04;3.65;;;2.28;;
64060;SDS011;60147;55.036;73.242;2023-06-24T10:24:35;5.35;;;2.40;;
64060;SDS011;60147;55.036;73.242;2023-06-24T10:27:06;4.25;;;1.80;;
64060;SDS011;60147;55.036;73.242;2023-06-24T10:29:51;8.88;;;2.45;;
64060;SDS011;60147;55.036;73.242;2023-06-24T10:32:18;4.43;;;2.05;;
64060;SDS011;60147;55.036;73.242;2023-06-24T10:34:45;4.38;;;2.38;;
64060;SDS011;60147;55.036;73.242;2023-06-24T10:37:32;6.07;;;2.50;;
64060;SDS011;60147;55.036;73.242;2023-06-24T10:39:59;3.40;;;1.95;;
64060;SDS011;60147;55.036;73.242;2023-06-24T10:42:26;6.22;;;2.40;;
64060;SDS011;60147;55.036;73.242;2023-06-24T10:44:54;8.57;;;3.20;;
64060;SDS011;60147;55.036;73.242;2023-06-24T10:47:21;5.25;;;2.35;;
64060;SDS011;60147;55.036;73.242;2023-06-24T10:55:21;4.07;;;1.75;;
64060;SDS011;60147;55.036;73.242;2023-06-24T10:57:47;3.95;;;2.53;;
64060;SDS011;60147;55.036;73.242;2023-06-24T11:00:13;18.92;;;3.90;;
64060;SDS011;60147;55.036;73.242;2023-06-24T11:02:39;9.65;;;2.92;;
64060;SDS011;60147;55.036;73.242;2023-06-24T11:05:05;5.28;;;2.55;;
64060;SDS011;60147;55.036;73.242;2023-06-24T11:07:32;9.52;;;3.42;;
64060;SDS011;60147;55.036;73.242;2023-06-24T11:10:06;6.43;;;3.25;;
64060;SDS011;60147;55.036;73.242;2023-06-24T11:12:33;4.07;;;2.20;;
64060;SDS011;60147;55.036;73.242;2023-06-24T11:15:03;3.15;;;2.28;;
64060;SDS011;60147;55.036;73.242;2023-06-24T11:17:29;5.43;;;2.40;;
64060;SDS011;60147;55.036;73.242;2023-06-24T11:22:40;5.57;;;2.33;;
64060;SDS011;60147;55.036;73.242;2023-06-24T11:25:13;8.30;;;4.20;;
64060;SDS011;60147;55.036;73.242;2023-06-24T11:27:39;9.15;;;3.30;;
64060;SDS011;60147;55.036;73.242;2023-06-24T11:30:06;8.48;;;2.95;;
64060;SDS011;60147;55.036;73.242;2023-06-24T11:32:39;3.83;;;2.10;;
64060;SDS011;60147;55.036;73.242;2023-06-24T11:35:05;7.35;;;2.35;;
64060;SDS011;60147;55.036;73.242;2023-06-24T11:37:49;7.30;;;2.50;;
64060;SDS011;60147;55.036;73.242;2023-06-24T11:40:18;6.90;;;2.92;;
64060;SDS011;60147;55.036;73.242;2023-06-24T11:42:45;5.90;;;3.05;;
64060;SDS011;60147;55.036;73.242;2023-06-24T11:45:13;6.53;;;3.13;;
64060;SDS011;60147;55.036;73.242;2023-06-24T11:48:02;8.05;;;3.08;;
64060;SDS011;60147;55.036;73.242;2023-06-24T11:50:30;5.38;;;3.17;;
64060;SDS011;60147;55.036;73.242;2023-06-24T11:55:59;8.98;;;3.58;;
64060;SDS011;60147;55.036;73.242;2023-06-24T11:58:25;19.38;;;6.47;;
64060;SDS011;60147;55.036;73.242;2023-06-24T12:01:09;17.15;;;4.85;;
64060;SDS011;60147;55.036;73.242;2023-06-24T12:03:36;8.48;;;3.20;;
64060;SDS011;60147;55.036;73.242;2023-06-24T12:06:20;9.27;;;2.92;;
64060;SDS011;60147;55.036;73.242;2023-06-24T12:08:46;7.20;;;3.58;;
64060;SDS011;60147;55.036;73.242;2023-06-24T12:11:12;13.60;;;4.32;;
64060;SDS011;60147;55.036;73.242;2023-06-24T12:13:38;14.82;;;4.45;;
64060;SDS011;60147;55.036;73.242;2023-06-24T12:16:04;31.92;;;19.58;;
64060;SDS011;60147;55.036;73.242;2023-06-24T12:18:30;14.88;;;8.23;;
64060;SDS011;60147;55.036;73.242;2023-06-24T12:20:55;11.48;;;5.47;;
64060;SDS011;60147;55.036;73.242;2023-06-24T12:23:22;9.93;;;4.53;;
64060;SDS011;60147;55.036;73.242;2023-06-24T12:26:06;13.23;;;6.10;;
64060;SDS011;60147;55.036;73.242;2023-06-24T12:28:32;9.65;;;5.05;;
64060;SDS011;60147;55.036;73.242;2023-06-24T12:30:58;7.00;;;3.92;;
64060;SDS011;60147;55.036;73.242;2023-06-24T12:33:24;7.20;;;4.10;;
64060;SDS011;60147;55.036;73.242;2023-06-24T12:38:53;8.77;;;4.82;;
64060;SDS011;60147;55.036;73.242;2023-06-24T12:41:19;7.35;;;4.80;;
64060;SDS011;60147;55.036;73.242;2023-06-24T12:43:45;6.57;;;4.95;;
64060;SDS011;60147;55.036;73.242;2023-06-24T12:46:12;9.63;;;6.53;;
64060;SDS011;60147;55.036;73.242;2023-06-24T12:48:37;6.35;;;4.43;;
64060;SDS011;60147;55.036;73.242;2023-06-24T12:51:03;6.82;;;4.20;;
64060;SDS011;60147;55.036;73.242;2023-06-24T12:53:29;6.30;;;4.10;;
64060;SDS011;60147;55.036;73.242;2023-06-24T12:56:14;8.45;;;5.15;;
64060;SDS011;60147;55.036;73.242;2023-06-24T12:58:40;11.90;;;4.68;;
64060;SDS011;60147;55.036;73.242;2023-06-24T13:01:23;10.25;;;5.75;;
64060;SDS011;60147;55.036;73.242;2023-06-24T13:03:49;9.43;;;5.07;;
64060;SDS011;60147;55.036;73.242;2023-06-24T13:06:15;10.85;;;6.30;;
64060;SDS011;60147;55.036;73.242;2023-06-24T13:08:41;10.77;;;5.78;;
64060;SDS011;60147;55.036;73.242;2023-06-24T13:11:09;11.55;;;5.20;;
64060;SDS011;60147;55.036;73.242;2023-06-24T13:13:35;7.88;;;4.93;;
64060;SDS011;60147;55.036;73.242;2023-06-24T13:16:01;8.88;;;4.28;;
64060;SDS011;60147;55.036;73.242;2023-06-24T13:18:27;8.48;;;5.00;;
64060;SDS011;60147;55.036;73.242;2023-06-24T13:20:53;9.57;;;4.25;;
64060;SDS011;60147;55.036;73.242;2023-06-24T13:23:19;15.00;;;6.75;;
64060;SDS011;60147;55.036;73.242;2023-06-24T13:25:45;15.13;;;7.38;;
64060;SDS011;60147;55.036;73.242;2023-06-24T13:28:10;12.68;;;8.70;;
64060;SDS011;60147;55.036;73.242;2023-06-24T13:30:37;13.85;;;9.45;;
64060;SDS011;60147;55.036;73.242;2023-06-24T13:33:21;21.27;;;10.85;;
64060;SDS011;60147;55.036;73.242;2023-06-24T13:35:47;27.20;;;15.23;;
64060;SDS011;60147;55.036;73.242;2023-06-24T13:38:15;27.25;;;14.95;;
64060;SDS011;60147;55.036;73.242;2023-06-24T13:40:41;37.35;;;16.98;;
64060;SDS011;60147;55.036;73.242;2023-06-24T13:43:07;46.60;;;23.48;;
64060;SDS011;60147;55.036;73.242;2023-06-24T13:45:33;36.03;;;18.25;;
64060;SDS011;60147;55.036;73.242;2023-06-24T13:47:59;31.90;;;17.17;;
64060;SDS011;60147;55.036;73.242;2023-06-24T13:55:53;20.73;;;13.27;;
64060;SDS011;60147;55.036;73.242;2023-06-24T14:01:03;14.57;;;6.75;;
64060;SDS011;60147;55.036;73.242;2023-06-24T14:03:29;17.92;;;8.00;;
64060;SDS011;60147;55.036;73.242;2023-06-24T14:05:55;12.93;;;6.35;;
64060;SDS011;60147;55.036;73.242;2023-06-24T14:08:22;19.65;;;7.95;;
64060;SDS011;60147;55.036;73.242;2023-06-24T14:11:07;22.30;;;9.95;;
64060;SDS011;60147;55.036;73.242;2023-06-24T14:13:32;19.60;;;10.55;;
64060;SDS011;60147;55.036;73.242;2023-06-24T14:15:58;17.83;;;9.27;;
64060;SDS011;60147;55.036;73.242;2023-06-24T14:18:24;20.25;;;8.93;;
64060;SDS011;60147;55.036;73.242;2023-06-24T14:20:51;14.20;;;8.18;;
64060;SDS011;60147;55.036;73.242;2023-06-24T14:23:16;10.50;;;6.38;;
64060;SDS011;60147;55.036;73.242;2023-06-24T14:25:43;16.63;;;9.23;;
64060;SDS011;60147;55.036;73.242;2023-06-24T14:28:09;22.25;;;9.95;;
64060;SDS011;60147;55.036;73.242;2023-06-24T14:33:19;18.83;;;7.32;;
64060;SDS011;60147;55.036;73.242;2023-06-24T14:35:46;12.80;;;6.30;;
64060;SDS011;60147;55.036;73.242;2023-06-24T14:38:12;11.77;;;6.38;;
64060;SDS011;60147;55.036;73.242;2023-06-24T14:40:38;16.38;;;6.97;;
64060;SDS011;60147;55.036;73.242;2023-06-24T14:43:13;27.63;;;12.57;;
64060;SDS011;60147;55.036;73.242;2023-06-24T14:45:39;26.35;;;13.70;;
64060;SDS011;60147;55.036;73.242;2023-06-24T14:48:05;34.45;;;20.55;;
64060;SDS011;60147;55.036;73.242;2023-06-24T14:50:31;23.48;;;12.38;;
64060;SDS011;60147;55.036;73.242;2023-06-24T14:52:57;22.65;;;9.85;;
64060;SDS011;60147;55.036;73.242;2023-06-24T14:55:23;21.60;;;10.60;;
64060;SDS011;60147;55.036;73.242;2023-06-24T14:57:49;22.60;;;10.30;;
64060;SDS011;60147;55.036;73.242;2023-06-24T15:00:15;43.92;;;22.00;;
64060;SDS011;60147;55.036;73.242;2023-06-24T15:02:41;69.30;;;38.25;;
64060;SDS011;60147;55.036;73.242;2023-06-24T15:05:07;31.77;;;15.52;;
64060;SDS011;60147;55.036;73.242;2023-06-24T15:07:34;27.02;;;11.98;;
64060;SDS011;60147;55.036;73.242;2023-06-24T15:12:45;28.40;;;8.82;;
64060;SDS011;60147;55.036;73.242;2023-06-24T15:15:11;19.80;;;7.60;;
64060;SDS011;60147;55.036;73.242;2023-06-24T15:17:37;15.63;;;6.97;;
64060;SDS011;60147;55.036;73.242;2023-06-24T15:20:07;31.27;;;17.42;;
64060;SDS011;60147;55.036;73.242;2023-06-24T15:22:36;33.03;;;16.00;;
64060;SDS011;60147;55.036;73.242;2023-06-24T15:25:02;33.13;;;19.10;;
64060;SDS011;60147;55.036;73.242;2023-06-24T15:27:47;25.13;;;14.20;;
64060;SDS011;60147;55.036;73.242;2023-06-24T15:30:31;37.30;;;22.35;;
64060;SDS011;60147;55.036;73.242;2023-06-24T15:32:57;30.55;;;16.88;;
64060;SDS011;60147;55.036;73.242;2023-06-24T15:35:23;27.42;;;14.50;;
64060;SDS011;60147;55.036;73.242;2023-06-24T15:37:49;33.63;;;16.80;;
64060;SDS011;60147;55.036;73.242;2023-06-24T15:40:15;24.88;;;13.85;;
64060;SDS011;60147;55.036;73.242;2023-06-24T15:42:41;25.98;;;13.88;;
64060;SDS011;60147;55.036;73.242;2023-06-24T15:45:07;30.63;;;12.93;;
64060;SDS011;60147;55.036;73.242;2023-06-24T15:47:33;21.92;;;11.95;;
64060;SDS011;60147;55.036;73.242;2023-06-24T15:50:00;21.83;;;10.95;;
64060;SDS011;60147;55.036;73.242;2023-06-24T15:52:26;27.20;;;12.57;;
64060;SDS011;60147;55.036;73.242;2023-06-24T15:54:52;23.58;;;12.88;;
64060;SDS011;60147;55.036;73.242;2023-06-24T15:57:18;27.13;;;14.68;;
64060;SDS011;60147;55.036;73.242;2023-06-24T15:59:43;34.17;;;17.67;;
64060;SDS011;60147;55.036;73.242;2023-06-24T16:02:10;36.42;;;17.73;;
64060;SDS011;60147;55.036;73.242;2023-06-24T16:04:36;39.95;;;17.83;;
64060;SDS011;60147;55.036;73.242;2023-06-24T16:07:02;35.45;;;19.55;;
64060;SDS011;60147;55.036;73.242;2023-06-24T16:09:28;52.03;;;23.25;;
64060;SDS011;60147;55.036;73.242;2023-06-24T16:11:54;38.33;;;22.33;;
64060;SDS011;60147;55.036;73.242;2023-06-24T16:14:21;53.22;;;30.15;;
64060;SDS011;60147;55.036;73.242;2023-06-24T16:16:46;62.63;;;33.85;;
64060;SDS011;60147;55.036;73.242;2023-06-24T16:19:13;55.17;;;30.70;;
64060;SDS011;60147;55.036;73.242;2023-06-24T16:21:39;71.72;;;36.15;;
64060;SDS011;60147;55.036;73.242;2023-06-24T16:24:05;62.17;;;31.17;;
64060;SDS011;60147;55.036;73.242;2023-06-24T16:26:31;66.13;;;31.50;;
64060;SDS011;60147;55.036;73.242;2023-06-24T16:29:15;61.10;;;31.92;;
64060;SDS011;60147;55.036;73.242;2023-06-24T16:31:41;64.43;;;34.33;;